Date,TemperatureHighF,TemperatureAvgF,TemperatureLowF,DewpointHighF,DewpointAvgF,DewpointLowF,HumidityHigh,HumidityAvg,HumidityLow,PressureMaxIn,PressureMinIn,WindSpeedMaxMPH,WindSpeedAvgMPH,GustSpeedMaxMPH,PrecipitationSumIn
2013-1-1,28.4,26.4,21.9,26.8,24.5,18.3,99,93,85,28.05,27.95,21,4,21,0.84
2013-1-2,21.9,17.9,11.7,18.6,11.6,3.8,87,76,60,28.21,28.02,17,3,17,0.84
2013-1-3,29.2,18.8,2.2,15.6,10.4,-2.6,83,70,54,28.22,28.12,26,2,26,0.84
2013-1-4,26.2,23.7,21.7,17.4,15.9,13.8,77,72,63,28.23,28.14,25,7,25,0.84
2013-1-5,32.2,25.6,-13.3,19.0,16.5,-20.8,77,68,55,28.38,28.18,25,3,25,0.85
2013-1-6,33.7,30.2,27.4,26.1,21.8,17.7,84,71,64,28.20,28.03,18,2,18,0.87
2013-1-7,29.9,25.3,13.6,24.8,18.4,-18.2,84,75,22,28.46,28.20,18,1,18,0.87
2013-1-8,40.4,21.8,6.3,26.4,14.6,1.7,88,75,54,28.40,28.31,13,0,13,0.89
2013-1-9,40.6,28.4,-11.3,37.0,24.7,-16.7,95,86,68,28.47,28.25,23,2,23,0.92
2013-1-10,38.5,33.4,24.0,26.0,22.7,17.3,88,66,52,28.62,28.41,14,1,14,0.92
2013-1-11,39.7,36.6,32.7,38.1,30.0,22.0,99,78,55,28.41,28.09,18,1,18,1.15
2013-1-12,55.9,41.8,-19.1,52.6,40.1,-19.5,100,94,80,28.18,28.10,10,0,10,1.15
2013-1-13,59.5,52.4,39.1,48.7,45.2,34.5,98,77,64,28.11,27.99,18,2,18,1.20
2013-1-14,51.3,36.2,27.3,50.0,31.4,22.0,96,83,67,28.36,28.01,23,1,23,1.33
2013-1-15,29.7,27.8,23.7,25.7,22.8,17.6,90,81,67,28.37,28.11,12,1,12,1.36
2013-1-16,30.1,28.4,27.0,28.9,25.8,21.0,96,90,76,28.12,27.92,14,1,14,1.42
2013-1-17,28.0,25.9,23.5,21.5,20.4,17.2,88,79,69,28.20,28.03,20,2,20,1.43
2013-1-18,25.6,20.5,13.5,19.9,8.6,1.5,81,60,45,28.46,28.13,30,4,30,1.43
2013-1-19,45.7,36.1,19.1,16.2,11.1,3.1,64,36,27,28.31,27.92,33,6,33,1.60
2013-1-20,40.0,31.6,18.7,25.0,14.4,5.0,63,49,34,28.11,27.86,36,10,36,1.62
2013-1-21,25.4,17.9,7.3,14.9,9.6,-1.0,81,70,48,28.09,27.88,27,5,27,1.62
2013-1-22,7.2,4.1,0.7,1.3,-5.9,-9.6,78,63,50,28.21,27.99,24,6,24,1.62
2013-1-23,11.1,6.0,0.0,3.8,-4.7,-9.6,77,61,48,28.25,28.03,18,2,18,1.62
2013-1-24,13.6,9.4,-1.8,5.2,-0.4,-10.6,80,65,41,28.48,28.01,21,1,21,1.62
2013-1-25,16.6,8.9,-10.7,13.3,2.4,-17.7,88,74,59,28.45,28.00,16,1,16,1.62
2013-1-26,21.1,17.6,14.6,14.9,12.4,9.4,85,80,72,28.41,28.04,20,3,20,1.62
2013-1-27,27.2,18.3,3.3,14.1,9.3,-1.9,83,68,53,28.51,28.36,10,1,10,1.71
2013-1-28,44.5,34.8,19.3,43.7,31.8,9.2,97,89,64,28.36,28.09,21,3,21,2.19
2013-1-29,60.4,51.2,40.7,51.2,46.2,39.3,98,84,64,28.16,27.98,22,2,22,2.24
2013-1-30,66.4,51.2,43.8,50.6,45.5,40.6,95,81,56,27.98,27.37,33,3,33,0.77
2013-1-31,41.7,23.1,15.1,38.9,15.7,1.8,90,73,55,27.87,27.33,38,7,38,0.96
2013-2-1,18.7,11.9,7.5,11.9,3.9,-2.9,82,70,58,28.29,27.81,25,3,25,0.96
2013-2-2,18.5,10.4,-0.2,14.9,3.5,-8.8,86,73,55,28.28,27.96,23,1,23,0.96
2013-2-3,21.2,17.6,-41.8,16.7,13.3,-44.9,85,83,78,27.97,27.80,27,1,27,1.01
2013-2-4,28.9,17.3,10.7,26.9,11.5,4.1,93,78,62,28.05,27.86,23,2,23,1.01
2013-2-5,31.4,28.8,26.4,29.5,26.3,22.2,94,91,74,27.97,27.85,20,2,20,0.01
2013-2-6,26.8,24.2,14.0,24.8,19.1,10.0,93,81,71,28.33,27.95,26,3,26,0.01
2013-2-7,31.2,23.9,9.9,23.3,17.5,5.7,85,76,70,28.34,28.10,21,2,21,0.04
2013-2-8,35.9,28.5,20.5,31.7,24.2,16.4,93,84,74,28.11,27.85,36,4,36,0.24
2013-2-9,25.1,18.9,9.8,16.9,12.0,5.1,86,75,58,28.39,28.10,33,2,33,0.24
2013-2-10,38.4,22.5,1.7,19.3,10.1,-3.8,84,62,38,28.37,28.10,20,2,20,0.28
2013-2-11,52.4,40.1,31.1,40.9,28.5,17.8,99,68,30,28.10,27.77,41,5,41,0.41
2013-2-12,38.8,32.2,25.7,23.2,20.0,17.0,75,61,46,28.07,27.95,30,4,30,0.41
2013-2-13,35.9,27.5,19.8,27.4,21.7,16.0,97,80,54,27.98,27.72,14,0,14,0.41
2013-2-14,34.8,28.8,22.5,28.2,22.9,18.4,94,79,65,28.01,27.87,19,3,19,0.51
2013-2-15,35.7,30.6,25.8,29.0,25.6,21.8,91,82,60,28.07,27.97,15,2,15,0.01
2013-2-16,26.0,20.1,14.6,23.5,13.6,8.3,92,76,61,28.05,27.90,17,1,17,0.02
2013-2-17,15.6,12.4,10.2,11.3,5.5,-1.7,83,74,56,28.21,27.89,27,5,27,0.02
2013-2-18,38.9,20.8,3.3,20.1,6.6,-4.1,73,55,36,28.30,28.02,19,1,19,0.04
2013-2-19,36.2,30.3,18.6,32.0,22.7,13.2,91,74,50,28.02,27.72,39,4,39,0.16
2013-2-20,18.7,13.4,4.4,13.3,5.7,-2.0,79,71,63,28.17,27.91,33,6,33,0.16
2013-2-21,18.8,13.9,8.9,11.4,6.6,0.8,79,72,67,28.34,28.13,25,4,25,0.16
2013-2-22,24.7,21.0,11.9,21.1,14.1,5.9,88,75,59,28.29,28.09,33,3,33,0.16
2013-2-23,43.8,32.9,24.5,35.1,28.0,20.9,92,83,64,28.09,27.88,12,0,12,0.17
2013-2-24,28.7,23.8,12.5,26.9,18.7,5.5,93,81,72,28.14,27.88,25,3,25,0.17
2013-2-25,34.6,27.4,19.4,18.1,15.5,13.9,84,62,44,28.23,28.12,12,1,12,0.17
2013-2-26,32.7,28.6,26.4,30.6,19.9,14.1,93,71,56,28.15,27.68,40,5,40,0.27
2013-2-27,36.7,32.9,30.0,35.5,30.8,28.0,98,92,78,27.75,27.65,21,1,21,0.10
2013-2-28,30.0,28.4,-2.3,28.2,25.5,-4.3,93,89,83,27.82,27.68,19,3,19,0.15
2013-3-1,28.3,25.8,16.7,26.2,21.9,12.1,92,85,76,27.97,27.82,19,2,19,0.18
2013-3-2,22.9,21.2,19.5,17.6,16.2,14.4,86,81,71,27.95,27.89,16,2,16,0.18
2013-3-3,23.1,20.8,18.5,18.3,15.4,12.1,88,79,70,27.98,27.89,19,4,19,0.18
2013-3-4,29.2,23.0,16.8,16.3,13.8,10.6,83,68,57,28.10,27.98,19,2,19,0.19
2013-3-5,41.5,30.2,10.3,23.8,12.2,6.1,88,53,24,28.09,27.75,35,4,35,0.24
2013-3-6,35.1,30.0,26.7,28.2,24.8,17.9,94,81,64,28.12,27.74,26,2,26,0.41
2013-3-7,34.8,30.0,-46.6,26.7,23.6,-52.1,89,77,62,28.27,28.11,17,1,17,0.41
2013-3-8,31.2,27.5,19.8,23.6,21.7,14.9,88,79,71,28.40,28.25,18,2,18,0.43
2013-3-9,48.9,35.9,16.4,27.4,19.5,12.7,89,56,30,28.41,28.28,15,1,15,0.44
2013-3-10,55.4,46.5,27.9,26.5,21.1,5.9,52,37,31,28.29,28.14,17,2,21,0.44
2013-3-11,50.2,47.8,44.7,43.2,29.2,22.4,87,50,35,28.16,27.86,35,4,35,0.46
2013-3-12,47.8,37.8,33.1,44.3,34.9,27.9,96,90,82,27.95,27.85,24,3,24,0.83
2013-3-13,31.7,26.7,21.4,25.8,20.7,13.4,91,78,56,28.11,27.96,29,6,29,0.86
2013-3-14,30.2,27.5,21.3,16.2,15.1,14.2,79,60,52,28.15,28.10,27,5,27,0.86
2013-3-15,42.2,37.3,24.4,31.4,26.8,15.0,75,65,58,28.14,27.87,25,6,25,0.86
2013-3-16,42.2,36.9,31.5,40.2,35.5,30.8,100,95,75,27.98,27.70,18,2,18,0.92
2013-3-17,31.5,28.5,24.0,31.2,22.4,17.3,100,78,64,28.22,27.97,18,2,18,0.92
2013-3-18,28.7,26.9,23.4,27.1,23.3,18.8,94,87,69,28.20,27.84,32,7,32,1.44
2013-3-19,38.6,32.1,25.5,34.0,22.8,12.3,100,71,37,28.00,27.78,35,8,35,1.71
2013-3-20,34.4,28.4,21.9,22.3,15.4,9.8,82,59,46,28.00,27.83,25,2,25,1.72
2013-3-22,20.6,19.4,12.3,14.5,12.7,5.9,77,75,71,27.98,27.89,40,1,40,1.72
2013-3-23,27.9,22.2,11.6,19.5,16.5,6.1,88,79,68,28.05,28.02,9,1,9,1.72
2013-3-25,30.2,27.8,4.6,27.2,25.5,3.4,95,91,85,27.76,27.55,16,3,16,1.94
2013-3-26,33.5,28.9,26.1,26.2,24.6,21.0,94,84,66,28.10,27.76,17,2,17,1.97
2013-3-27,33.6,29.1,26.3,25.8,23.8,19.3,94,81,57,28.18,28.07,22,5,22,2.08
2013-3-28,33.8,30.2,27.4,27.0,25.1,23.0,91,81,73,28.29,28.13,18,4,18,2.09
2013-3-29,35.4,31.6,29.7,28.0,25.6,24.0,83,78,66,28.29,28.27,7,0,7,2.09
2013-4-4,42.4,41.4,39.9,19.0,17.5,13.2,43,38,31,28.16,28.09,18,1,18,2.09
2013-4-5,49.4,41.0,29.1,23.7,18.6,14.0,57,41,32,28.19,28.00,23,4,23,2.09
2013-4-6,50.2,35.8,20.6,19.8,14.1,8.0,82,46,21,28.33,28.17,23,3,23,2.09
2013-4-7,65.9,52.1,41.7,45.3,30.4,16.1,83,45,32,28.17,28.00,29,5,29,2.13
2013-4-8,68.3,55.1,42.2,47.8,40.5,36.9,95,63,33,28.16,28.05,24,2,24,2.13
2013-4-9,73.4,62.5,49.5,49.4,45.8,38.2,71,55,38,28.23,28.06,25,5,25,2.13
2013-4-10,76.8,67.6,55.6,52.8,49.2,45.2,84,53,38,28.12,27.96,24,6,24,2.86
2013-4-11,73.3,60.5,46.8,57.8,50.3,46.3,100,73,40,28.05,27.80,28,3,28,2.87
2013-4-12,61.8,53.9,41.0,56.2,45.8,30.7,96,76,43,27.93,27.70,27,6,27,3.50
2013-4-13,54.4,43.1,34.4,32.3,29.3,25.0,75,59,40,28.06,27.92,30,7,30,3.50
2013-4-14,60.2,45.9,29.6,35.7,29.3,22.3,80,55,33,28.21,28.06,14,2,14,3.50
2013-4-15,55.7,52.9,50.1,45.8,41.4,34.7,78,65,49,28.26,28.13,35,6,35,3.50
2013-4-16,74.3,61.2,51.6,52.7,49.1,45.5,92,67,40,28.33,28.17,27,4,27,3.85
2013-4-17,62.1,55.6,50.3,54.9,51.9,49.0,98,88,75,28.33,28.24,23,1,23,3.86
2013-4-18,72.0,61.8,55.3,56.7,52.3,48.9,88,72,52,28.28,27.99,39,9,39,3.86
2013-4-19,70.5,56.2,38.6,57.0,48.1,33.1,91,74,55,28.00,27.67,33,8,33,4.19
2013-4-20,44.9,37.5,32.3,33.1,24.5,19.8,82,60,40,28.41,27.93,30,8,30,4.20
2013-4-21,32.3,29.7,28.5,22.7,21.6,19.9,78,72,61,28.45,28.40,3,0,3,4.20
2013-4-25,35.3,35.1,33.0,31.2,31.0,29.0,85,85,85,28.22,28.21,11,2,11,4.62
2013-4-28,49.7,48.5,44.3,46.8,45.6,41.5,91,90,86,28.15,28.12,12,1,12,4.79
2013-4-29,47.9,47.7,47.1,45.3,44.2,19.2,92,88,32,28.13,28.08,10,0,10,4.79
2013-4-30,53.4,53.4,53.2,48.8,48.7,48.5,85,84,84,28.26,28.26,9,1,9,4.80
2013-5-1,64.1,59.4,53.1,32.9,30.8,27.0,43,34,27,28.45,28.39,21,4,21,4.80
2013-5-2,65.1,54.9,43.2,37.4,32.6,25.8,75,45,25,28.46,28.30,27,6,27,4.80
2013-5-3,60.7,54.6,44.9,43.0,38.7,28.1,72,55,37,28.40,28.32,29,7,29,4.80
2013-5-4,59.9,50.4,41.3,40.7,37.5,33.0,83,62,46,28.34,28.22,30,8,30,4.80
2013-5-5,60.8,51.0,41.8,38.8,32.6,24.3,74,52,26,28.26,28.16,31,8,31,4.80
2013-5-6,55.2,48.4,41.4,51.5,43.9,34.9,100,85,63,28.22,28.13,25,6,25,4.86
2013-5-7,56.9,53.5,51.9,54.4,52.1,49.7,100,95,81,28.14,28.05,30,8,30,5.34
2013-5-8,65.4,55.2,46.9,53.3,47.8,43.4,100,78,46,28.11,28.00,23,2,23,5.79
2013-5-9,65.3,56.4,47.1,55.8,51.0,46.6,100,83,60,28.14,28.02,19,2,19,5.85
2013-5-10,70.7,56.1,45.3,58.2,50.5,44.5,99,83,48,28.15,27.96,28,2,28,6.30
2013-5-11,56.1,54.0,48.1,55.1,51.2,42.3,99,90,79,27.97,27.90,19,4,19,6.60
2013-5-12,48.1,42.6,37.0,42.8,30.6,23.9,90,64,44,28.10,27.90,33,7,33,6.62
2013-5-13,45.9,39.2,30.4,27.1,23.2,19.6,75,54,37,28.23,28.08,26,6,26,6.62
2013-5-14,56.3,43.0,25.2,34.8,29.2,22.8,95,62,34,28.26,28.06,18,2,18,6.62
2013-5-15,79.6,63.7,45.0,56.7,48.4,34.6,89,59,40,28.07,27.88,30,5,31,6.67
2013-5-16,67.5,60.5,49.3,57.0,53.4,46.1,100,79,52,28.12,27.93,20,4,20,6.95
2013-5-17,69.0,58.9,48.9,52.5,47.3,38.6,100,70,35,28.24,28.11,13,1,13,6.95
2013-5-18,64.6,54.3,42.9,54.4,49.2,41.4,100,84,68,28.28,28.21,23,4,23,6.95
2013-5-19,59.3,56.3,50.1,56.6,54.6,50.0,100,94,87,28.26,28.17,15,4,18,6.98
2013-5-20,76.0,64.3,52.0,59.3,56.2,51.4,100,77,47,28.20,28.09,15,1,15,6.98
2013-5-21,75.5,64.8,52.0,61.2,56.6,48.9,100,77,51,28.14,28.00,21,2,21,6.98
2013-5-22,76.1,63.5,54.2,59.2,54.0,47.6,96,73,48,28.07,27.95,23,3,23,6.99
2013-5-23,71.3,59.6,53.2,59.5,55.1,51.6,100,86,52,28.02,27.91,27,3,27,7.21
2013-5-24,53.3,39.3,34.2,52.0,34.9,24.9,99,85,66,28.31,27.94,24,5,24,7.29
2013-5-25,52.4,41.0,29.9,33.9,29.5,24.8,87,66,42,28.34,28.25,30,5,30,7.29
2013-5-26,57.9,44.9,30.7,35.0,31.2,23.2,90,62,37,28.34,28.28,20,3,20,7.29
2013-5-27,57.5,46.2,30.5,46.0,38.0,28.8,97,75,45,28.37,28.24,14,1,14,7.29
2013-5-28,72.0,57.4,48.7,61.1,51.5,43.9,100,82,56,28.26,28.16,26,1,26,7.44
2013-5-29,77.0,63.8,46.1,59.2,52.0,41.5,95,68,39,28.26,28.18,26,3,26,7.44
2013-5-30,77.7,63.9,49.6,57.4,52.6,39.1,100,70,39,28.35,28.25,15,1,15,7.44
2013-5-31,83.3,66.2,51.7,61.9,55.6,36.0,100,73,40,28.29,28.15,38,1,38,7.46
2013-6-1,77.7,66.0,53.3,60.1,56.5,51.0,100,75,45,28.19,28.03,21,3,21,7.48
2013-6-2,68.8,62.2,56.1,58.6,55.4,49.6,95,79,59,28.04,27.97,21,3,21,7.49
2013-6-3,59.2,54.5,45.5,55.8,51.6,43.8,100,90,73,28.15,28.00,14,1,17,7.55
2013-6-4,62.4,49.0,30.6,45.3,39.2,29.5,100,73,41,28.26,28.14,13,1,13,7.56
2013-6-5,65.9,54.2,35.7,51.7,45.6,33.2,96,74,56,28.26,28.11,25,5,25,7.56
2013-6-6,58.9,54.6,51.2,53.4,51.1,48.0,96,88,77,28.13,27.94,28,4,28,7.85
2013-6-7,59.9,56.4,52.2,58.4,55.2,49.9,99,96,93,27.95,27.85,10,1,11,8.08
2013-6-8,60.7,53.0,47.1,52.5,49.4,45.3,100,88,67,28.24,27.95,14,2,14,8.09
2013-6-9,66.0,59.1,44.4,57.4,53.3,44.2,100,82,67,28.30,28.19,21,4,23,8.09
2013-6-10,68.2,60.0,55.8,62.7,57.6,55.1,100,92,79,28.20,27.94,24,3,24,8.42
2013-6-11,66.5,60.3,57.1,60.4,57.5,55.3,100,91,73,28.04,27.94,20,4,20,8.46
2013-6-12,71.5,64.2,58.4,60.7,58.0,50.0,96,81,62,28.06,27.94,20,2,20,8.46
2013-6-13,62.6,57.1,49.0,60.3,52.9,44.7,95,86,76,27.95,27.71,27,5,27,8.94
2013-6-14,63.1,54.9,47.4,50.3,47.1,42.3,91,76,58,28.17,27.87,18,2,18,8.94
2013-6-15,66.5,56.2,42.3,54.0,45.5,39.7,100,71,42,28.24,28.15,16,2,16,8.94
2013-6-16,63.7,56.8,49.8,58.8,54.2,47.8,100,91,76,28.18,28.06,29,3,29,9.03
2013-6-17,71.1,63.1,56.5,63.0,57.8,55.9,100,84,61,28.12,28.06,11,1,11,9.64
2013-6-18,64.8,58.4,51.8,59.5,55.8,51.4,100,91,72,28.09,27.97,16,0,16,9.74
2013-6-19,67.6,58.5,50.5,52.2,49.0,42.9,100,73,45,28.27,28.08,9,1,9,9.75
2013-6-20,75.4,61.3,46.3,56.5,51.2,43.1,100,73,44,28.35,28.27,12,1,12,9.75
2013-6-21,74.7,61.7,49.2,63.5,51.4,42.5,100,75,35,28.39,28.33,10,1,12,9.75
2013-6-22,55.7,54.6,54.1,54.0,53.6,53.3,98,97,94,28.33,28.31,0,0,1,9.75
2013-10-25,37.7,33.1,29.4,29.2,27.0,24.7,91,78,66,28.35,28.30,18,3,18,0.09
2013-10-26,46.2,36.0,25.3,27.7,24.4,21.3,90,65,39,28.31,27.98,31,5,31,0.10
2013-10-27,46.3,38.1,28.1,30.3,27.9,24.2,90,68,48,28.18,28.02,20,3,20,0.10
2013-10-28,55.9,38.2,23.3,38.0,29.3,21.7,96,74,42,28.35,28.18,13,0,13,0.10
2013-10-29,56.7,40.3,26.8,36.8,29.8,25.0,95,70,33,28.42,28.34,12,0,12,0.10
2013-10-30,57.7,46.1,33.0,49.8,41.4,28.0,94,84,73,28.34,28.22,12,0,12,0.11
2013-10-31,61.9,55.9,50.8,56.5,51.3,47.6,100,85,70,28.23,27.72,25,2,25,0.20
2013-11-1,64.1,53.1,41.7,52.4,44.0,37.5,93,72,49,27.82,27.55,34,7,34,0.36
2013-11-2,46.3,41.2,37.5,40.2,36.9,34.1,95,85,67,28.00,27.76,24,3,24,0.40
2013-11-3,43.2,36.5,26.3,36.8,28.9,21.3,94,75,48,28.47,28.00,16,2,16,0.41
2013-11-4,37.0,29.4,22.0,21.9,18.6,13.5,90,66,47,28.58,28.46,17,2,17,0.41
2013-11-5,45.9,38.4,30.3,29.9,24.1,20.3,68,57,44,28.57,28.44,14,2,14,0.41
2013-11-6,66.4,43.8,28.2,45.3,34.8,26.0,96,74,42,28.43,28.16,21,1,21,0.41
2013-11-7,38.7,33.7,29.1,33.7,24.1,18.1,87,68,56,28.18,28.07,26,6,26,0.75
2013-11-8,34.4,29.4,21.8,23.5,20.1,15.8,84,69,55,28.33,28.12,27,6,27,0.75
2013-11-9,48.7,34.7,18.0,28.7,18.6,12.4,91,58,27,28.32,28.06,22,3,22,0.00
2013-11-10,44.2,42.2,39.2,29.5,26.4,21.9,66,54,42,28.06,28.04,22,6,22,0.00
2013-12-10,24.6,22.3,19.7,18.9,12.8,9.9,83,66,58,28.21,28.03,29,9,29,0.00
2013-12-11,26.7,21.5,16.4,18.1,10.9,5.9,83,64,46,28.33,28.20,27,7,27,0.00
2013-12-12,20.8,15.7,11.6,15.8,4.0,-1.8,83,60,45,28.40,28.21,25,8,25,0.00
2013-12-13,30.9,22.5,16.6,14.8,9.1,1.4,72,56,47,28.30,28.18,26,4,26,0.00
2013-12-14,29.3,26.3,21.5,26.4,20.8,13.5,93,80,61,28.28,28.00,23,2,23,0.01
2013-12-15,23.9,22.9,21.6,19.3,17.4,14.9,87,79,74,27.97,27.87,32,10,32,0.02
2013-12-16,22.7,19.3,11.5,20.3,15.0,6.0,91,83,73,28.13,27.97,25,5,25,0.02
2013-12-17,30.6,26.9,22.0,29.5,24.2,16.5,97,90,81,28.07,27.95,20,2,20,0.06
2013-12-18,24.5,22.3,15.7,18.9,16.9,10.6,88,80,74,28.21,28.04,14,4,20,0.06
2013-12-19,46.3,36.2,22.9,31.1,21.8,7.2,75,56,37,28.16,28.09,27,6,27,0.34
2013-12-20,48.9,41.7,22.1,42.1,31.6,14.2,89,68,51,28.14,28.00,23,4,25,0.36
2013-12-21,58.5,53.7,44.7,52.8,48.4,37.8,94,82,74,28.04,27.87,22,2,22,0.47
2013-12-22,62.9,54.3,50.9,51.7,47.4,41.6,94,78,64,28.07,27.80,38,6,38,0.76
2013-12-23,51.2,37.1,26.5,46.3,33.3,16.6,95,86,67,28.28,28.02,22,4,22,0.87
2013-12-24,26.5,19.7,9.7,19.7,10.9,0.8,84,68,54,28.47,28.22,24,6,24,0.87
2013-12-25,26.7,15.7,6.6,10.0,5.4,0.2,79,65,47,28.46,28.24,12,1,12,0.87
2013-12-26,32.0,28.0,23.5,20.7,15.0,9.5,72,58,52,28.35,28.19,30,5,30,0.88
2013-12-27,38.9,29.6,21.1,18.6,14.9,8.9,70,56,32,28.36,28.31,23,2,23,0.88
2013-12-28,46.7,38.6,30.5,26.4,21.4,16.7,57,50,42,28.32,28.14,19,3,20,0.88
2013-12-29,40.3,37.9,34.4,39.8,33.9,21.0,98,87,48,28.14,27.69,24,2,24,1.75
2013-12-30,36.2,25.5,18.8,34.3,22.0,13.4,93,86,79,28.17,27.89,23,4,23,1.77
2013-12-31,23.4,21.1,19.1,19.5,16.0,12.2,87,81,73,28.28,28.07,20,5,20,1.77
2014-1-1,40.3,30.1,22.1,23.1,19.1,14.5,77,64,45,28.31,28.09,18,2,18,1.78
2014-1-2,30.5,24.1,11.5,24.2,20.3,5.1,94,85,71,28.09,27.68,19,1,19,1.78